sensor_id;sensor_type;location;lat;lon;timestamp;pressure;altitude;pressure_sealevel;temperature;humidity
42887;BME280;29032;56.028;92.904;2022-08-19T00:01:47;99005.28;;;11.83;59.13
42887;BME280;29032;56.028;92.904;2022-08-19T00:06:49;98998.38;;;11.77;59.49
42887;BME280;29032;56.028;92.904;2022-08-19T00:11:53;98998.38;;;11.77;59.65
42887;BME280;29032;56.028;92.904;2022-08-19T00:16:55;98994.28;;;11.78;59.62
42887;BME280;29032;56.028;92.904;2022-08-19T00:21:58;98995.03;;;11.86;59.87
42887;BME280;29032;56.028;92.904;2022-08-19T00:27:02;99011.25;;;11.95;60.04
42887;BME280;29032;56.028;92.904;2022-08-19T00:32:04;98998.41;;;11.92;59.97
42887;BME280;29032;56.028;92.904;2022-08-19T00:37:06;99003.63;;;11.88;59.67
42887;BME280;29032;56.028;92.904;2022-08-19T00:42:10;99005.88;;;11.97;59.44
42887;BME280;29032;56.028;92.904;2022-08-19T00:47:12;99003.47;;;12.01;59.42
42887;BME280;29032;56.028;92.904;2022-08-19T00:52:17;99009.25;;;12.11;58.80
42887;BME280;29032;56.028;92.904;2022-08-19T00:57:29;99002.91;;;12.10;58.66
42887;BME280;29032;56.028;92.904;2022-08-19T01:02:32;99019.25;;;11.99;58.77
42887;BME280;29032;56.028;92.904;2022-08-19T01:07:35;99011.84;;;12.01;58.73
42887;BME280;29032;56.028;92.904;2022-08-19T01:12:39;99023.19;;;12.11;58.75
42887;BME280;29032;56.028;92.904;2022-08-19T01:17:41;99017.44;;;12.09;58.81
42887;BME280;29032;56.028;92.904;2022-08-19T01:22:47;99009.06;;;12.09;59.31
42887;BME280;29032;56.028;92.904;2022-08-19T01:27:51;99023.75;;;12.17;58.71
42887;BME280;29032;56.028;92.904;2022-08-19T01:32:54;99021.53;;;12.16;58.53
42887;BME280;29032;56.028;92.904;2022-08-19T01:38:00;99027.47;;;12.20;59.07
42887;BME280;29032;56.028;92.904;2022-08-19T01:43:03;99025.25;;;12.18;58.91
42887;BME280;29032;56.028;92.904;2022-08-19T01:48:05;99029.34;;;12.25;59.02
42887;BME280;29032;56.028;92.904;2022-08-19T01:53:11;99036.81;;;12.30;58.63
42887;BME280;29032;56.028;92.904;2022-08-19T01:58:15;99034.53;;;12.21;59.21
42887;BME280;29032;56.028;92.904;2022-08-19T02:03:18;99043.88;;;12.23;60.08
42887;BME280;29032;56.028;92.904;2022-08-19T02:08:22;99038.81;;;12.22;60.33
42887;BME280;29032;56.028;92.904;2022-08-19T02:13:25;99037.88;;;12.11;61.52
42887;BME280;29032;56.028;92.904;2022-08-19T02:18:28;99036.00;;;12.06;62.00
42887;BME280;29032;56.028;92.904;2022-08-19T02:23:31;99041.59;;;12.06;63.10
42887;BME280;29032;56.028;92.904;2022-08-19T02:28:33;99041.03;;;12.08;63.64
42887;BME280;29032;56.028;92.904;2022-08-19T02:33:36;99033.44;;;12.08;64.06
42887;BME280;29032;56.028;92.904;2022-08-19T02:38:40;99038.63;;;12.12;64.15
42887;BME280;29032;56.028;92.904;2022-08-19T02:43:42;99040.09;;;12.05;64.50
42887;BME280;29032;56.028;92.904;2022-08-19T02:48:44;99044.00;;;12.02;64.51
42887;BME280;29032;56.028;92.904;2022-08-19T02:53:48;99056.28;;;12.07;65.17
42887;BME280;29032;56.028;92.904;2022-08-19T02:58:51;99044.00;;;12.02;64.88
42887;BME280;29032;56.028;92.904;2022-08-19T03:03:53;99048.28;;;12.03;65.65
42887;BME280;29032;56.028;92.904;2022-08-19T03:08:58;99055.38;;;12.12;64.96
42887;BME280;29032;56.028;92.904;2022-08-19T03:14:01;99046.81;;;12.10;65.36
42887;BME280;29032;56.028;92.904;2022-08-19T03:19:03;99048.66;;;12.07;66.26
42887;BME280;29032;56.028;92.904;2022-08-19T03:24:08;99044.03;;;12.18;65.02
42887;BME280;29032;56.028;92.904;2022-08-19T03:29:10;99044.94;;;12.13;65.42
42887;BME280;29032;56.028;92.904;2022-08-19T03:34:15;99047.91;;;12.15;65.50
42887;BME280;29032;56.028;92.904;2022-08-19T03:39:19;99050.72;;;12.15;65.97
42887;BME280;29032;56.028;92.904;2022-08-19T03:44:22;99041.25;;;12.18;66.32
42887;BME280;29032;56.028;92.904;2022-08-19T03:49:25;99050.19;;;12.24;65.63
42887;BME280;29032;56.028;92.904;2022-08-19T03:54:29;99051.50;;;12.30;66.73
42887;BME280;29032;56.028;92.904;2022-08-19T03:59:33;99051.88;;;12.42;66.00
42887;BME280;29032;56.028;92.904;2022-08-19T04:04:37;99049.09;;;12.42;65.06
42887;BME280;29032;56.028;92.904;2022-08-19T04:09:40;99053.00;;;12.47;65.59
42887;BME280;29032;56.028;92.904;2022-08-19T04:14:42;99047.78;;;12.43;65.17
42887;BME280;29032;56.028;92.904;2022-08-19T04:19:45;99050.78;;;12.45;65.84
42887;BME280;29032;56.028;92.904;2022-08-19T04:24:48;99061.19;;;12.52;63.92
42887;BME280;29032;56.028;92.904;2022-08-19T04:29:50;99062.13;;;12.47;65.31
42887;BME280;29032;56.028;92.904;2022-08-19T04:34:52;99068.84;;;12.44;63.77
42887;BME280;29032;56.028;92.904;2022-08-19T04:39:56;99072.91;;;12.43;64.41
42887;BME280;29032;56.028;92.904;2022-08-19T04:44:58;99073.28;;;12.32;64.58
42887;BME280;29032;56.028;92.904;2022-08-19T04:50:00;99068.44;;;12.32;65.49
42887;BME280;29032;56.028;92.904;2022-08-19T04:55:05;99072.53;;;12.39;65.56
42887;BME280;29032;56.028;92.904;2022-08-19T05:00:09;99067.88;;;12.34;65.70
42887;BME280;29032;56.028;92.904;2022-08-19T05:05:11;99019.25;;;11.91;64.82
42887;BME280;29032;56.028;92.904;2022-08-19T05:10:15;99075.16;;;12.37;65.12
42887;BME280;29032;56.028;92.904;2022-08-19T05:15:17;99079.22;;;12.28;64.64
42887;BME280;29032;56.028;92.904;2022-08-19T05:20:19;99075.50;;;12.26;64.67
42887;BME280;29032;56.028;92.904;2022-08-19T05:25:23;99085.53;;;12.29;65.01
42887;BME280;29032;56.028;92.904;2022-08-19T05:30:25;99073.28;;;12.32;65.62
42887;BME280;29032;56.028;92.904;2022-08-19T05:35:27;99070.47;;;12.32;64.99
42887;BME280;29032;56.028;92.904;2022-08-19T05:40:31;99075.50;;;12.41;64.46
42887;BME280;29032;56.028;92.904;2022-08-19T05:45:39;99081.47;;;12.45;64.93
42887;BME280;29032;56.028;92.904;2022-08-19T05:50:41;99073.28;;;12.39;64.28
42887;BME280;29032;56.028;92.904;2022-08-19T05:55:45;99071.81;;;12.46;65.20
42887;BME280;29032;56.028;92.904;2022-08-19T06:00:47;99074.78;;;12.48;64.98
42887;BME280;29032;56.028;92.904;2022-08-19T06:05:49;99082.97;;;12.54;64.75
42887;BME280;29032;56.028;92.904;2022-08-19T06:10:53;99080.59;;;12.65;65.82
42887;BME280;29032;56.028;92.904;2022-08-19T06:15:55;99080.59;;;12.65;64.99
42887;BME280;29032;56.028;92.904;2022-08-19T06:20:57;99083.56;;;12.68;65.34
42887;BME280;29032;56.028;92.904;2022-08-19T06:26:01;99082.66;;;12.73;63.92
42887;BME280;29032;56.028;92.904;2022-08-19T06:31:06;99084.13;;;12.74;64.16
42887;BME280;29032;56.028;92.904;2022-08-19T06:36:16;99083.41;;;12.73;63.91
42887;BME280;29032;56.028;92.904;2022-08-19T06:41:20;99084.88;;;12.67;64.33
42887;BME280;29032;56.028;92.904;2022-08-19T06:46:23;99085.25;;;12.63;63.59
42887;BME280;29032;56.028;92.904;2022-08-19T06:51:25;99090.81;;;12.63;63.83
42887;BME280;29032;56.028;92.904;2022-08-19T06:56:30;99082.66;;;12.65;63.56
42887;BME280;29032;56.028;92.904;2022-08-19T07:01:35;99097.53;;;12.68;62.88
42887;BME280;29032;56.028;92.904;2022-08-19T07:06:37;99097.94;;;12.72;63.48
42887;BME280;29032;56.028;92.904;2022-08-19T07:11:46;99097.91;;;12.87;63.56
42887;BME280;29032;56.028;92.904;2022-08-19T07:16:50;99099.75;;;12.84;63.23
42887;BME280;29032;56.028;92.904;2022-08-19T07:21:53;99094.38;;;12.79;63.26
42887;BME280;29032;56.028;92.904;2022-08-19T07:26:59;99099.22;;;12.86;62.55
42887;BME280;29032;56.028;92.904;2022-08-19T07:32:03;99093.44;;;12.84;62.88
42887;BME280;29032;56.028;92.904;2022-08-19T07:37:06;99093.44;;;12.84;61.98
42887;BME280;29032;56.028;92.904;2022-08-19T07:42:11;99097.19;;;12.86;62.61
42887;BME280;29032;56.028;92.904;2022-08-19T07:47:13;99087.84;;;12.84;62.16
42887;BME280;29032;56.028;92.904;2022-08-19T07:52:15;99088.41;;;12.82;62.62
42887;BME280;29032;56.028;92.904;2022-08-19T07:57:18;99088.59;;;12.92;62.74
42887;BME280;29032;56.028;92.904;2022-08-19T08:02:21;99080.94;;;12.92;62.38
42887;BME280;29032;56.028;92.904;2022-08-19T08:07:22;99084.88;;;12.97;62.11
42887;BME280;29032;56.028;92.904;2022-08-19T08:12:28;99080.00;;;13.05;62.08
42887;BME280;29032;56.028;92.904;2022-08-19T08:17:30;99074.41;;;13.05;61.67
42887;BME280;29032;56.028;92.904;2022-08-19T08:22:33;99081.69;;;13.16;62.32
42887;BME280;29032;56.028;92.904;2022-08-19T08:27:37;99074.78;;;13.25;61.74
42887;BME280;29032;56.028;92.904;2022-08-19T08:32:40;99073.84;;;13.30;60.29
42887;BME280;29032;56.028;92.904;2022-08-19T08:37:43;99068.59;;;13.34;60.03
42887;BME280;29032;56.028;92.904;2022-08-19T08:42:53;99059.81;;;13.45;60.45
42887;BME280;29032;56.028;92.904;2022-08-19T08:48:00;99051.97;;;13.51;59.93
42887;BME280;29032;56.028;92.904;2022-08-19T08:53:04;99058.59;;;13.79;59.55
42887;BME280;29032;56.028;92.904;2022-08-19T08:58:13;99057.25;;;14.20;58.45
42887;BME280;29032;56.028;92.904;2022-08-19T09:03:19;99057.44;;;14.47;58.03
42887;BME280;29032;56.028;92.904;2022-08-19T09:08:29;99051.16;;;14.64;57.77
42887;BME280;29032;56.028;92.904;2022-08-19T09:13:40;99051.66;;;14.95;57.30
42887;BME280;29032;56.028;92.904;2022-08-19T09:18:45;99054.72;;;15.24;55.30
42887;BME280;29032;56.028;92.904;2022-08-19T09:23:48;99046.41;;;15.33;55.15
42887;BME280;29032;56.028;92.904;2022-08-19T09:28:52;99048.53;;;15.60;54.62
42887;BME280;29032;56.028;92.904;2022-08-19T09:33:54;99045.25;;;15.54;54.03
42887;BME280;29032;56.028;92.904;2022-08-19T09:38:56;99039.47;;;15.52;54.22
42887;BME280;29032;56.028;92.904;2022-08-19T09:44:00;99041.53;;;15.51;54.14
42887;BME280;29032;56.028;92.904;2022-08-19T09:49:02;99036.81;;;15.71;54.23
42887;BME280;29032;56.028;92.904;2022-08-19T09:54:05;99036.75;;;16.06;52.93
42887;BME280;29032;56.028;92.904;2022-08-19T09:59:08;99039.38;;;16.31;52.27
42887;BME280;29032;56.028;92.904;2022-08-19T10:04:11;99039.28;;;16.38;52.42
42887;BME280;29032;56.028;92.904;2022-08-19T10:09:14;99040.03;;;16.48;52.09
42887;BME280;29032;56.028;92.904;2022-08-19T10:14:18;99032.06;;;17.01;51.37
42887;BME280;29032;56.028;92.904;2022-08-19T10:19:20;99029.38;;;17.90;48.89
42887;BME280;29032;56.028;92.904;2022-08-19T10:24:22;99029.84;;;18.99;46.87
42887;BME280;29032;56.028;92.904;2022-08-19T10:29:25;99030.72;;;19.23;46.13
42887;BME280;29032;56.028;92.904;2022-08-19T10:34:29;99029.75;;;18.56;47.30
42887;BME280;29032;56.028;92.904;2022-08-19T10:39:32;99028.41;;;17.66;48.73
42887;BME280;29032;56.028;92.904;2022-08-19T10:44:36;99030.75;;;17.12;49.62
42887;BME280;29032;56.028;92.904;2022-08-19T10:49:38;99025.03;;;16.63;50.20
42887;BME280;29032;56.028;92.904;2022-08-19T10:54:40;99026.13;;;16.41;51.08
42887;BME280;29032;56.028;92.904;2022-08-19T10:59:44;99022.47;;;16.21;51.14
42887;BME280;29032;56.028;92.904;2022-08-19T11:04:46;99031.25;;;15.98;51.48
42887;BME280;29032;56.028;92.904;2022-08-19T11:09:48;99032.19;;;15.83;51.61
42887;BME280;29032;56.028;92.904;2022-08-19T11:14:52;99036.72;;;15.79;51.98
42887;BME280;29032;56.028;92.904;2022-08-19T11:19:54;99028.25;;;15.69;53.37
42887;BME280;29032;56.028;92.904;2022-08-19T11:24:56;99041.03;;;15.62;52.04
42887;BME280;29032;56.028;92.904;2022-08-19T11:30:00;99044.72;;;15.65;52.20
42887;BME280;29032;56.028;92.904;2022-08-19T11:35:02;99041.13;;;15.55;52.79
42887;BME280;29032;56.028;92.904;2022-08-19T11:40:05;99039.22;;;15.57;52.91
42887;BME280;29032;56.028;92.904;2022-08-19T11:45:10;99042.59;;;15.56;52.80
42887;BME280;29032;56.028;92.904;2022-08-19T11:50:12;99040.13;;;15.43;52.99
42887;BME280;29032;56.028;92.904;2022-08-19T11:55:14;99031.22;;;15.36;52.61
42887;BME280;29032;56.028;92.904;2022-08-19T12:00:18;99030.91;;;15.32;53.13
42887;BME280;29032;56.028;92.904;2022-08-19T12:05:20;99036.13;;;15.19;54.20
42887;BME280;29032;56.028;92.904;2022-08-19T12:10:22;99038.00;;;15.16;53.59
42887;BME280;29032;56.028;92.904;2022-08-19T12:15:26;99033.13;;;15.17;53.41
42887;BME280;29032;56.028;92.904;2022-08-19T12:20:29;99033.44;;;15.03;52.85
42887;BME280;29032;56.028;92.904;2022-08-19T12:25:31;99046.56;;;15.01;53.57
42887;BME280;29032;56.028;92.904;2022-08-19T12:30:37;99041.28;;;15.05;53.13
42887;BME280;29032;56.028;92.904;2022-08-19T12:35:39;99048.22;;;15.21;53.07
42887;BME280;29032;56.028;92.904;2022-08-19T12:40:41;99050.00;;;14.92;53.41
42887;BME280;29032;56.028;92.904;2022-08-19T12:45:48;99062.34;;;14.89;53.73
42887;BME280;29032;56.028;92.904;2022-08-19T12:50:50;99068.44;;;14.77;54.50
42887;BME280;29032;56.028;92.904;2022-08-19T12:55:55;99058.72;;;14.78;54.51
42887;BME280;29032;56.028;92.904;2022-08-19T13:00:59;99060.81;;;14.70;54.81
42887;BME280;29032;56.028;92.904;2022-08-19T13:06:01;99059.63;;;14.56;57.00
42887;BME280;29032;56.028;92.904;2022-08-19T13:11:10;99065.16;;;14.64;55.68
42887;BME280;29032;56.028;92.904;2022-08-19T13:16:14;99081.69;;;14.52;56.02
42887;BME280;29032;56.028;92.904;2022-08-19T13:21:16;99072.06;;;14.38;55.33
42887;BME280;29032;56.028;92.904;2022-08-19T13:26:18;99081.44;;;14.33;55.76
42887;BME280;29032;56.028;92.904;2022-08-19T13:31:24;99093.00;;;14.37;56.96
42887;BME280;29032;56.028;92.904;2022-08-19T13:36:27;99094.72;;;14.24;57.48
42887;BME280;29032;56.028;92.904;2022-08-19T13:41:29;99091.78;;;14.22;57.02
42887;BME280;29032;56.028;92.904;2022-08-19T13:46:32;99098.28;;;14.25;57.31
42887;BME280;29032;56.028;92.904;2022-08-19T13:51:34;99105.97;;;14.17;58.39
42887;BME280;29032;56.028;92.904;2022-08-19T13:56:40;99100.91;;;14.23;56.88
42887;BME280;29032;56.028;92.904;2022-08-19T14:01:44;99111.00;;;14.18;57.02
42887;BME280;29032;56.028;92.904;2022-08-19T14:06:46;99102.84;;;14.13;57.64
42887;BME280;29032;56.028;92.904;2022-08-19T14:11:48;99102.47;;;14.09;57.26
42887;BME280;29032;56.028;92.904;2022-08-19T14:16:51;99106.75;;;14.10;57.49
42887;BME280;29032;56.028;92.904;2022-08-19T14:21:55;99105.66;;;14.05;57.71
42887;BME280;29032;56.028;92.904;2022-08-19T14:26:57;99110.00;;;13.98;58.24
42887;BME280;29032;56.028;92.904;2022-08-19T14:32:01;99117.81;;;14.00;58.65
42887;BME280;29032;56.028;92.904;2022-08-19T14:37:03;99118.59;;;13.93;58.17
42887;BME280;29032;56.028;92.904;2022-08-19T14:42:06;99126.47;;;13.87;58.62
42887;BME280;29032;56.028;92.904;2022-08-19T14:47:10;99126.09;;;13.83;58.55
42887;BME280;29032;56.028;92.904;2022-08-19T14:52:12;99122.56;;;13.74;58.78
42887;BME280;29032;56.028;92.904;2022-08-19T14:57:15;99127.81;;;13.70;59.75
42887;BME280;29032;56.028;92.904;2022-08-19T15:02:18;99127.81;;;13.70;58.91
42887;BME280;29032;56.028;92.904;2022-08-19T15:07:20;99123.53;;;13.54;59.22
42887;BME280;29032;56.028;92.904;2022-08-19T15:12:23;99120.19;;;13.48;59.58
42887;BME280;29032;56.028;92.904;2022-08-19T15:17:26;99124.28;;;13.47;59.76
42887;BME280;29032;56.028;92.904;2022-08-19T15:22:28;99129.16;;;13.39;59.62
42887;BME280;29032;56.028;92.904;2022-08-19T15:27:31;99115.38;;;13.33;59.34
42887;BME280;29032;56.028;92.904;2022-08-19T15:32:35;99121.91;;;13.36;59.64
42887;BME280;29032;56.028;92.904;2022-08-19T15:37:37;99116.88;;;13.27;59.44
42887;BME280;29032;56.028;92.904;2022-08-19T15:42:39;99118.56;;;13.30;59.73
42887;BME280;29032;56.028;92.904;2022-08-19T15:47:43;99112.41;;;13.31;60.12
42887;BME280;29032;56.028;92.904;2022-08-19T15:52:46;99126.94;;;13.30;59.81
42887;BME280;29032;56.028;92.904;2022-08-19T15:57:49;99125.47;;;13.29;60.88
42887;BME280;29032;56.028;92.904;2022-08-19T16:02:52;99126.56;;;13.33;60.50
42887;BME280;29032;56.028;92.904;2022-08-19T16:07:54;99129.19;;;13.24;61.58
42887;BME280;29032;56.028;92.904;2022-08-19T16:12:57;99127.31;;;13.18;61.75
42887;BME280;29032;56.028;92.904;2022-08-19T16:18:00;99125.84;;;13.17;61.71
42887;BME280;29032;56.028;92.904;2022-08-19T16:23:03;99129.97;;;13.01;62.29
42887;BME280;29032;56.028;92.904;2022-08-19T16:28:05;99129.97;;;12.93;62.46
42887;BME280;29032;56.028;92.904;2022-08-19T16:33:09;99137.38;;;12.91;62.50
42887;BME280;29032;56.028;92.904;2022-08-19T16:38:11;99135.91;;;12.75;63.21
42887;BME280;29032;56.028;92.904;2022-08-19T16:43:14;99138.88;;;12.77;63.88
42887;BME280;29032;56.028;92.904;2022-08-19T16:48:17;99135.91;;;12.82;63.62
42887;BME280;29032;56.028;92.904;2022-08-19T16:53:21;99131.06;;;12.83;62.54
42887;BME280;29032;56.028;92.904;2022-08-19T16:58:24;99130.13;;;12.88;62.69
42887;BME280;29032;56.028;92.904;2022-08-19T17:03:29;99128.66;;;12.95;61.95
42887;BME280;29032;56.028;92.904;2022-08-19T17:08:31;99134.03;;;12.92;62.27
42887;BME280;29032;56.028;92.904;2022-08-19T17:13:34;99133.50;;;12.94;61.83
42887;BME280;29032;56.028;92.904;2022-08-19T17:18:38;99129.22;;;12.93;62.02
42887;BME280;29032;56.028;92.904;2022-08-19T17:23:40;99133.66;;;12.81;62.01
42887;BME280;29032;56.028;92.904;2022-08-19T17:28:43;99122.13;;;12.77;62.69
42887;BME280;29032;56.028;92.904;2022-08-19T17:33:47;99126.97;;;12.84;62.39
42887;BME280;29032;56.028;92.904;2022-08-19T17:38:49;99121.00;;;12.80;62.51
42887;BME280;29032;56.028;92.904;2022-08-19T17:43:53;99123.25;;;12.81;62.27
42887;BME280;29032;56.028;92.904;2022-08-19T17:48:57;99125.84;;;12.87;61.96
42887;BME280;29032;56.028;92.904;2022-08-19T17:53:59;99120.06;;;12.77;62.02
42887;BME280;29032;56.028;92.904;2022-08-19T17:59:01;99131.06;;;12.83;61.92
42887;BME280;29032;56.028;92.904;2022-08-19T18:04:05;99130.88;;;12.88;61.81
42887;BME280;29032;56.028;92.904;2022-08-19T18:09:07;99131.25;;;12.85;61.73
42887;BME280;29032;56.028;92.904;2022-08-19T18:14:09;99125.84;;;12.87;61.64
42887;BME280;29032;56.028;92.904;2022-08-19T18:19:13;99130.50;;;12.92;61.91
42887;BME280;29032;56.028;92.904;2022-08-19T18:24:15;99128.84;;;12.89;61.59
42887;BME280;29032;56.028;92.904;2022-08-19T18:29:17;99119.53;;;12.86;61.65
42887;BME280;29032;56.028;92.904;2022-08-19T18:34:21;99121.00;;;12.87;62.50
42887;BME280;29032;56.028;92.904;2022-08-19T18:39:23;99121.38;;;12.84;62.02
42887;BME280;29032;56.028;92.904;2022-08-19T18:44:25;99123.41;;;12.83;62.44
42887;BME280;29032;56.028;92.904;2022-08-19T18:49:30;99121.38;;;12.84;61.80
42887;BME280;29032;56.028;92.904;2022-08-19T18:54:33;99122.84;;;12.70;62.31
42887;BME280;29032;56.028;92.904;2022-08-19T18:59:35;99123.41;;;12.68;62.69
42887;BME280;29032;56.028;92.904;2022-08-19T19:04:39;99130.13;;;12.73;62.49
42887;BME280;29032;56.028;92.904;2022-08-19T19:09:41;99129.56;;;12.67;62.41
42887;BME280;29032;56.028;92.904;2022-08-19T19:14:43;99140.00;;;12.66;62.31
42887;BME280;29032;56.028;92.904;2022-08-19T19:19:46;99133.28;;;12.69;62.19
42887;BME280;29032;56.028;92.904;2022-08-19T19:24:49;99142.56;;;12.64;62.65
42887;BME280;29032;56.028;92.904;2022-08-19T19:29:51;99146.13;;;12.64;62.55
42887;BME280;29032;56.028;92.904;2022-08-19T19:34:55;99135.50;;;12.63;62.44
42887;BME280;29032;56.028;92.904;2022-08-19T19:39:57;99132.31;;;12.59;62.66
42887;BME280;29032;56.028;92.904;2022-08-19T19:44:59;99144.75;;;12.50;63.11
42887;BME280;29032;56.028;92.904;2022-08-19T19:50:03;99146.28;;;12.51;62.92
42887;BME280;29032;56.028;92.904;2022-08-19T19:55:06;99142.91;;;12.45;63.06
42887;BME280;29032;56.028;92.904;2022-08-19T20:00:09;99142.16;;;12.45;62.86
42887;BME280;29032;56.028;92.904;2022-08-19T20:05:13;99144.56;;;12.48;63.08
42887;BME280;29032;56.028;92.904;2022-08-19T20:10:15;99150.34;;;12.50;62.90
42887;BME280;29032;56.028;92.904;2022-08-19T20:15:17;99144.75;;;12.50;62.32
42887;BME280;29032;56.028;92.904;2022-08-19T20:20:21;99144.00;;;12.50;63.53
42887;BME280;29032;56.028;92.904;2022-08-19T20:25:23;99152.59;;;12.52;63.01
42887;BME280;29032;56.028;92.904;2022-08-19T20:30:26;99155.91;;;12.50;62.63
42887;BME280;29032;56.028;92.904;2022-08-19T20:35:30;99158.19;;;12.52;63.03
42887;BME280;29032;56.028;92.904;2022-08-19T20:40:32;99152.59;;;12.44;62.75
42887;BME280;29032;56.028;92.904;2022-08-19T20:45:34;99162.63;;;12.47;62.99
42887;BME280;29032;56.028;92.904;2022-08-19T20:50:38;99163.22;;;12.53;63.34
42887;BME280;29032;56.028;92.904;2022-08-19T20:55:42;99167.47;;;12.54;63.12
42887;BME280;29032;56.028;92.904;2022-08-19T21:00:45;99172.88;;;12.52;63.34
42887;BME280;29032;56.028;92.904;2022-08-19T21:05:50;99167.47;;;12.54;63.79
42887;BME280;29032;56.028;92.904;2022-08-19T21:10:53;99170.09;;;12.52;64.29
42887;BME280;29032;56.028;92.904;2022-08-19T21:15:55;99171.00;;;12.47;64.82
42887;BME280;29032;56.028;92.904;2022-08-19T21:20:59;99167.09;;;12.50;64.81
42887;BME280;29032;56.028;92.904;2022-08-19T21:26:01;99161.50;;;12.43;64.69
42887;BME280;29032;56.028;92.904;2022-08-19T21:31:04;99163.00;;;12.44;64.68
42887;BME280;29032;56.028;92.904;2022-08-19T21:36:08;99166.53;;;12.44;65.23
42887;BME280;29032;56.028;92.904;2022-08-19T21:41:11;99160.72;;;12.34;64.53
42887;BME280;29032;56.028;92.904;2022-08-19T21:46:13;99167.78;;;12.28;65.14
42887;BME280;29032;56.028;92.904;2022-08-19T21:51:17;99161.09;;;12.31;65.36
42887;BME280;29032;56.028;92.904;2022-08-19T21:56:19;99151.41;;;12.24;65.42
42887;BME280;29032;56.028;92.904;2022-08-19T22:01:21;99165.53;;;12.19;65.34
42887;BME280;29032;56.028;92.904;2022-08-19T22:06:24;99154.00;;;12.22;65.70
42887;BME280;29032;56.028;92.904;2022-08-19T22:11:27;99156.22;;;12.16;65.62
42887;BME280;29032;56.028;92.904;2022-08-19T22:16:29;99155.81;;;12.12;65.46
42887;BME280;29032;56.028;92.904;2022-08-19T22:21:33;99161.06;;;12.16;65.87
42887;BME280;29032;56.028;92.904;2022-08-19T22:26:35;99157.69;;;12.09;66.73
42887;BME280;29032;56.028;92.904;2022-08-19T22:31:37;99150.78;;;12.03;66.11
42887;BME280;29032;56.028;92.904;2022-08-19T22:36:41;99155.97;;;12.06;66.18
42887;BME280;29032;56.028;92.904;2022-08-19T22:41:43;99155.75;;;11.97;66.62
42887;BME280;29032;56.028;92.904;2022-08-19T22:46:45;99160.19;;;11.92;67.16
42887;BME280;29032;56.028;92.904;2022-08-19T22:51:48;99162.09;;;11.97;66.88
42887;BME280;29032;56.028;92.904;2022-08-19T22:56:50;99153.88;;;11.92;66.89
42887;BME280;29032;56.028;92.904;2022-08-19T23:01:53;99153.13;;;11.91;67.58
42887;BME280;29032;56.028;92.904;2022-08-19T23:06:56;99156.09;;;11.93;67.42
42887;BME280;29032;56.028;92.904;2022-08-19T23:11:58;99145.47;;;11.84;67.28
42887;BME280;29032;56.028;92.904;2022-08-19T23:17:00;99158.28;;;11.79;67.78
42887;BME280;29032;56.028;92.904;2022-08-19T23:22:04;99160.53;;;11.81;68.11
42887;BME280;29032;56.028;92.904;2022-08-19T23:27:06;99168.16;;;11.80;68.29
42887;BME280;29032;56.028;92.904;2022-08-19T23:32:08;99176.34;;;11.86;68.06
42887;BME280;29032;56.028;92.904;2022-08-19T23:37:12;99182.13;;;11.88;67.34
42887;BME280;29032;56.028;92.904;2022-08-19T23:42:14;99180.56;;;11.79;67.53
42887;BME280;29032;56.028;92.904;2022-08-19T23:47:16;99190.28;;;11.86;67.51
42887;BME280;29032;56.028;92.904;2022-08-19T23:52:20;99197.06;;;11.98;68.24
42887;BME280;29032;56.028;92.904;2022-08-19T23:57:22;99189.63;;;12.01;68.38
